createdAt,value
2022-11-02T00:01:29.709Z,13.30
2022-11-02T00:03:58.003Z,13.30
2022-11-02T00:06:26.219Z,13.20
2022-11-02T00:08:54.523Z,13.20
2022-11-02T00:15:47.239Z,13.10
2022-11-02T00:18:16.534Z,13.00
2022-11-02T00:20:44.979Z,13.00
2022-11-02T00:23:14.050Z,13.00
2022-11-02T00:25:45.147Z,13.00
2022-11-02T00:28:14.385Z,13.00
2022-11-02T00:30:44.150Z,13.10
2022-11-02T00:33:12.330Z,13.00
2022-11-02T00:35:41.107Z,13.10
2022-11-02T00:38:09.487Z,13.00
2022-11-02T00:40:37.675Z,13.00
2022-11-02T00:43:06.693Z,13.00
2022-11-02T00:45:34.906Z,12.90
2022-11-02T00:48:05.110Z,12.90
2022-11-02T00:50:33.980Z,13.00
2022-11-02T00:53:02.196Z,13.00
2022-11-02T00:55:30.510Z,12.90
2022-11-02T00:57:58.967Z,12.90
2022-11-02T01:00:27.042Z,12.90
2022-11-02T01:02:55.245Z,12.90
2022-11-02T01:05:25.044Z,13.00
2022-11-02T01:07:54.273Z,12.90
2022-11-02T01:10:22.633Z,12.90
2022-11-02T01:12:51.007Z,13.00
2022-11-02T01:15:19.277Z,12.90
2022-11-02T01:17:47.525Z,12.90
2022-11-02T01:20:16.137Z,12.90
2022-11-02T01:22:45.639Z,12.90
2022-11-02T01:25:13.753Z,12.90
2022-11-02T01:27:42.152Z,12.80
2022-11-02T01:30:11.433Z,12.80
2022-11-02T01:32:39.579Z,12.90
2022-11-02T01:35:08.302Z,12.80
2022-11-02T01:37:36.475Z,12.80
2022-11-02T01:40:07.169Z,12.80
2022-11-02T01:42:35.445Z,12.80
2022-11-02T01:45:03.736Z,12.90
2022-11-02T01:47:37.915Z,12.90
2022-11-02T01:50:08.951Z,12.80
2022-11-02T01:52:38.738Z,12.80
2022-11-02T01:55:14.076Z,12.80
2022-11-02T01:57:44.872Z,12.80
2022-11-02T02:00:15.547Z,12.80
2022-11-02T02:02:50.473Z,12.80
2022-11-02T02:05:19.533Z,12.90
2022-11-02T02:07:48.680Z,12.80
2022-11-02T02:10:18.723Z,12.80
2022-11-02T02:12:47.656Z,12.80
2022-11-02T02:15:16.237Z,12.80
2022-11-02T02:17:49.521Z,12.70
2022-11-02T02:20:27.348Z,12.70
2022-11-02T02:23:24.247Z,12.70
2022-11-02T02:26:17.373Z,12.70
2022-11-02T02:28:52.560Z,12.60
2022-11-02T02:31:28.941Z,12.60
2022-11-02T02:34:10.628Z,12.70
2022-11-02T02:39:24.989Z,12.60
2022-11-02T02:41:58.728Z,12.60
2022-11-02T02:44:30.992Z,12.60
2022-11-02T02:47:03.393Z,12.60
2022-11-02T02:49:36.538Z,12.60
2022-11-02T02:52:06.316Z,12.60
2022-11-02T02:54:39.961Z,12.70
2022-11-02T02:57:09.305Z,12.70
2022-11-02T02:59:42.136Z,12.70
2022-11-02T03:02:15.432Z,12.70
2022-11-02T03:04:43.993Z,12.60
2022-11-02T03:07:15.997Z,12.60
2022-11-02T03:09:50.942Z,12.50
2022-11-02T03:12:26.992Z,12.40
2022-11-02T03:15:11.577Z,12.50
2022-11-02T03:17:48.309Z,12.50
2022-11-02T03:20:23.999Z,12.50
2022-11-02T03:23:00.528Z,12.40
2022-11-02T03:25:31.715Z,12.40
2022-11-02T03:28:09.117Z,12.40
2022-11-02T03:30:43.698Z,12.40
2022-11-02T03:33:18.568Z,12.40
2022-11-02T03:35:52.443Z,12.30
2022-11-02T03:38:23.798Z,12.30
2022-11-02T03:40:55.389Z,12.30
2022-11-02T03:43:25.170Z,12.30
2022-11-02T03:45:57.989Z,12.30
2022-11-02T03:48:31.448Z,12.20
2022-11-02T03:51:06.418Z,12.30
2022-11-02T03:53:43.269Z,12.20
2022-11-02T03:56:18.265Z,12.10
2022-11-02T03:58:46.427Z,12.10
2022-11-02T04:01:18.925Z,12.10
2022-11-02T04:03:48.482Z,12.10
2022-11-02T04:06:17.190Z,12.20
2022-11-02T04:08:47.905Z,12.30
2022-11-02T04:11:34.032Z,12.30
2022-11-02T04:14:19.834Z,12.30
2022-11-02T04:16:49.403Z,12.10
2022-11-02T04:19:28.515Z,12.10
2022-11-02T04:22:14.772Z,12.10
2022-11-02T04:25:00.766Z,12.20
2022-11-02T04:27:29.099Z,12.10
2022-11-02T04:29:57.299Z,12.10
2022-11-02T04:32:44.335Z,12.10
2022-11-02T04:35:12.723Z,12.20
2022-11-02T04:37:58.994Z,12.20
2022-11-02T04:40:27.404Z,12.20
2022-11-02T04:42:56.073Z,12.10
2022-11-02T04:45:24.284Z,12.10
2022-11-02T04:47:54.062Z,12.10
2022-11-02T04:50:22.200Z,12.00
2022-11-02T04:52:57.337Z,12.00
2022-11-02T04:55:25.918Z,12.00
2022-11-02T04:57:54.322Z,12.00
2022-11-02T05:00:23.532Z,11.90
2022-11-02T05:02:53.649Z,11.90
2022-11-02T05:05:21.887Z,11.90
2022-11-02T05:07:50.267Z,11.90
2022-11-02T05:10:18.567Z,11.90
2022-11-02T05:12:46.643Z,11.90
2022-11-02T05:15:15.104Z,11.90
2022-11-02T05:17:43.356Z,11.90
2022-11-02T05:20:13.089Z,11.80
2022-11-02T05:22:43.534Z,11.70
2022-11-02T05:25:12.542Z,11.70
2022-11-02T05:27:40.674Z,11.70
2022-11-02T05:30:09.717Z,11.70
2022-11-02T05:32:38.052Z,11.50
2022-11-02T05:35:07.124Z,11.50
2022-11-02T05:37:36.955Z,11.60
2022-11-02T05:40:05.877Z,11.60
2022-11-02T05:42:34.650Z,11.70
2022-11-02T05:45:03.055Z,11.70
2022-11-02T05:47:31.295Z,11.60
2022-11-02T05:49:59.473Z,11.50
2022-11-02T05:52:27.923Z,11.60
2022-11-02T05:54:57.440Z,11.60
2022-11-02T05:57:25.707Z,11.50
2022-11-02T05:59:54.246Z,11.50
2022-11-02T06:02:24.737Z,11.50
2022-11-02T06:04:54.087Z,11.50
2022-11-02T06:07:22.432Z,11.50
2022-11-02T06:09:50.505Z,11.50
2022-11-02T06:12:20.289Z,11.50
2022-11-02T06:14:48.398Z,11.40
2022-11-02T06:17:16.564Z,11.50
2022-11-02T06:19:44.955Z,11.50
2022-11-02T06:22:13.125Z,11.30
2022-11-02T06:24:41.268Z,11.20
2022-11-02T06:27:09.618Z,11.30
2022-11-02T06:29:39.172Z,11.30
2022-11-02T06:32:07.340Z,11.20
2022-11-02T06:34:35.626Z,11.20
2022-11-02T06:37:03.910Z,11.20
2022-11-02T06:39:32.119Z,11.20
2022-11-02T06:42:00.468Z,11.10
2022-11-02T06:44:28.729Z,11.20
2022-11-02T06:46:58.229Z,11.20
2022-11-02T06:49:26.613Z,11.20
2022-11-02T06:51:54.891Z,11.10
2022-11-02T06:54:23.087Z,11.20
2022-11-02T06:56:51.479Z,11.10
2022-11-02T06:59:19.607Z,11.10
2022-11-02T07:01:52.815Z,11.20
2022-11-02T07:04:22.910Z,11.20
2022-11-02T07:06:51.098Z,11.20
2022-11-02T07:09:19.338Z,11.30
2022-11-02T07:11:47.506Z,11.30
2022-11-02T07:14:15.866Z,11.40
2022-11-02T07:16:44.461Z,11.40
2022-11-02T07:19:12.624Z,11.30
2022-11-02T07:21:43.729Z,11.50
2022-11-02T07:24:14.817Z,11.60
2022-11-02T07:26:43.148Z,11.90
2022-11-02T07:29:11.269Z,12.10
2022-11-02T07:31:39.537Z,12.40
2022-11-02T07:34:08.475Z,12.40
2022-11-02T07:36:38.826Z,12.40
2022-11-02T07:39:08.524Z,12.20
2022-11-02T07:41:36.938Z,12.10
2022-11-02T07:44:05.326Z,12.10
2022-11-02T07:46:33.678Z,12.10
2022-11-02T07:49:01.916Z,12.10
2022-11-02T07:51:30.521Z,12.20
2022-11-02T07:53:59.697Z,12.10
2022-11-02T07:56:29.472Z,12.00
2022-11-02T07:58:57.665Z,12.10
2022-11-02T08:01:26.039Z,12.20
2022-11-02T08:03:54.888Z,12.20
2022-11-02T08:06:23.168Z,12.10
2022-11-02T08:08:51.442Z,12.00
2022-11-02T08:11:19.650Z,12.10
2022-11-02T08:13:49.272Z,12.20
2022-11-02T08:16:17.567Z,12.30
2022-11-02T08:18:45.800Z,12.40
2022-11-02T08:21:14.032Z,12.40
2022-11-02T08:23:42.449Z,12.50
2022-11-02T08:26:10.621Z,12.70
2022-11-02T08:28:40.360Z,12.90
2022-11-02T08:31:15.916Z,13.00
2022-11-02T08:33:44.427Z,13.20
2022-11-02T08:36:13.589Z,13.30
2022-11-02T08:38:42.658Z,13.30
2022-11-02T08:41:10.834Z,13.30
2022-11-02T08:43:39.218Z,13.10
2022-11-02T08:46:16.483Z,13.00
2022-11-02T08:48:46.953Z,13.00
2022-11-02T08:51:15.210Z,13.00
2022-11-02T08:53:48.520Z,13.10
2022-11-02T08:56:18.655Z,13.60
2022-11-02T08:58:46.767Z,14.30
2022-11-02T09:01:15.182Z,14.90
2022-11-02T09:03:43.622Z,15.50
2022-11-02T09:06:13.289Z,16.00
2022-11-02T09:08:41.578Z,16.60
2022-11-02T09:11:09.745Z,17.10
2022-11-02T09:13:39.573Z,17.50
2022-11-02T09:16:08.448Z,17.90
2022-11-02T09:18:36.547Z,18.00
2022-11-02T09:21:05.763Z,18.10
2022-11-02T09:23:35.329Z,18.30
2022-11-02T09:26:03.485Z,18.50
2022-11-02T09:28:31.673Z,18.50
2022-11-02T09:30:59.850Z,18.60
2022-11-02T09:33:29.801Z,18.60
2022-11-02T09:36:03.954Z,18.60
2022-11-02T09:38:32.267Z,18.70
2022-11-02T09:41:12.614Z,19.00
2022-11-02T09:43:54.293Z,19.20
2022-11-02T09:46:26.424Z,19.10
2022-11-02T09:48:57.574Z,19.20
2022-11-02T09:51:29.760Z,19.30
2022-11-02T09:54:06.747Z,19.40
2022-11-02T09:56:37.541Z,19.40
2022-11-02T09:59:14.742Z,19.30
2022-11-02T10:02:05.958Z,19.40
2022-11-02T10:05:01.293Z,19.20
2022-11-02T10:07:55.655Z,18.90
2022-11-02T10:10:29.276Z,18.60
2022-11-02T10:13:04.478Z,18.40
2022-11-02T10:15:38.953Z,18.20
2022-11-02T10:18:14.716Z,18.30
2022-11-02T10:20:47.099Z,18.50
2022-11-02T10:23:24.220Z,18.50
2022-11-02T10:25:53.670Z,18.60
2022-11-02T10:28:28.005Z,18.80
2022-11-02T10:30:56.538Z,18.50
2022-11-02T10:33:27.816Z,18.30
2022-11-02T10:36:19.339Z,18.10
2022-11-02T10:39:02.761Z,18.10
2022-11-02T10:41:55.859Z,18.10
2022-11-02T10:44:39.227Z,18.10
2022-11-02T10:47:16.341Z,18.00
2022-11-02T10:50:15.309Z,17.90
2022-11-02T10:52:45.815Z,17.70
2022-11-02T10:55:25.696Z,17.50
2022-11-02T10:57:57.425Z,17.30
2022-11-02T11:00:30.543Z,17.30
2022-11-02T11:03:10.581Z,17.30
2022-11-02T11:05:53.225Z,17.40
2022-11-02T11:08:35.558Z,17.60
2022-11-02T11:11:16.947Z,17.80
2022-11-02T11:16:46.253Z,18.30
2022-11-02T11:19:40.426Z,18.50
2022-11-02T11:22:26.653Z,18.40
2022-11-02T11:24:55.157Z,18.70
2022-11-02T11:27:24.146Z,18.80
2022-11-02T11:29:57.282Z,18.70
2022-11-02T11:32:30.526Z,18.60
2022-11-02T11:35:00.592Z,18.60
2022-11-02T11:37:29.062Z,18.50
2022-11-02T11:40:01.445Z,18.30
2022-11-02T11:42:33.311Z,18.20
2022-11-02T11:45:05.148Z,18.30
2022-11-02T11:47:37.660Z,18.50
2022-11-02T11:50:15.559Z,18.60
2022-11-02T11:53:08.341Z,18.60
2022-11-02T11:55:36.670Z,18.60
2022-11-02T11:58:14.684Z,18.70
2022-11-02T12:00:43.393Z,18.80
2022-11-02T12:03:14.340Z,18.80
2022-11-02T12:05:55.483Z,18.80
2022-11-02T12:08:45.357Z,18.70
2022-11-02T12:11:27.807Z,18.70
2022-11-02T12:14:11.834Z,18.70
2022-11-02T12:17:07.693Z,18.70
2022-11-02T12:19:54.130Z,18.80
2022-11-02T12:22:30.715Z,19.00
2022-11-02T12:25:17.622Z,19.20
2022-11-02T12:27:53.866Z,19.20
2022-11-02T12:30:23.003Z,19.00
2022-11-02T12:33:07.335Z,18.90
2022-11-02T12:36:01.055Z,18.70
2022-11-02T12:39:08.232Z,18.50
2022-11-02T12:41:52.822Z,18.30
2022-11-02T12:44:57.072Z,18.40
2022-11-02T12:47:48.464Z,18.40
2022-11-02T12:50:26.080Z,18.40
2022-11-02T12:53:08.671Z,18.30
2022-11-02T12:55:43.137Z,18.30
2022-11-02T12:58:17.293Z,18.40
2022-11-02T13:00:48.729Z,18.40
2022-11-02T13:03:27.566Z,18.40
2022-11-02T13:06:04.175Z,18.30
2022-11-02T13:08:39.837Z,18.20
2022-11-02T13:11:14.063Z,18.20
2022-11-02T13:13:47.068Z,17.90
2022-11-02T13:16:18.749Z,17.80
2022-11-02T13:18:53.232Z,17.50
2022-11-02T13:21:31.089Z,17.40
2022-11-02T13:24:01.767Z,17.30
2022-11-02T13:26:34.246Z,17.10
2022-11-02T13:29:08.893Z,17.10
2022-11-02T13:31:41.578Z,17.00
2022-11-02T13:34:14.099Z,17.00
2022-11-02T13:36:43.326Z,17.10
2022-11-02T13:39:18.731Z,17.30
2022-11-02T13:42:19.546Z,17.50
2022-11-02T13:45:07.487Z,17.50
2022-11-02T13:48:15.725Z,17.40
2022-11-02T13:50:48.115Z,17.40
2022-11-02T13:53:21.002Z,17.30
2022-11-02T13:55:55.799Z,17.20
2022-11-02T13:58:26.672Z,17.20
2022-11-02T14:00:59.940Z,17.10
2022-11-02T14:03:32.071Z,17.10
2022-11-02T14:06:02.665Z,17.00
2022-11-02T14:08:36.272Z,17.00
2022-11-02T14:11:27.571Z,16.90
2022-11-02T14:14:19.571Z,16.80
2022-11-02T14:17:12.297Z,16.70
2022-11-02T14:19:56.638Z,16.60
2022-11-02T14:22:25.369Z,16.50
2022-11-02T14:25:12.176Z,16.50
2022-11-02T14:27:42.014Z,16.40
2022-11-02T14:30:48.775Z,16.40
2022-11-02T14:33:36.376Z,16.40
2022-11-02T14:36:09.426Z,16.40
2022-11-02T14:38:49.875Z,16.20
2022-11-02T14:41:42.912Z,16.10
2022-11-02T14:44:40.833Z,16.10
2022-11-02T14:47:11.036Z,16.10
2022-11-02T14:49:46.808Z,16.10
2022-11-02T14:52:25.153Z,16.10
2022-11-02T14:54:59.987Z,16.20
2022-11-02T14:57:32.396Z,16.10
2022-11-02T15:00:05.948Z,16.00
2022-11-02T15:02:40.347Z,15.90
2022-11-02T15:05:24.634Z,15.90
2022-11-02T15:07:58.227Z,15.90
2022-11-02T15:10:42.747Z,15.90
2022-11-02T15:13:47.643Z,15.70
2022-11-02T15:16:25.424Z,15.70
2022-11-02T15:18:55.650Z,15.50
2022-11-02T15:21:28.479Z,15.50
2022-11-02T15:24:17.033Z,15.30
2022-11-02T15:26:57.516Z,15.30
2022-11-02T15:29:37.053Z,15.30
2022-11-02T15:32:17.065Z,15.20
2022-11-02T15:34:51.734Z,15.10
2022-11-02T15:37:23.669Z,15.10
2022-11-02T15:39:53.114Z,15.10
2022-11-02T15:42:31.735Z,15.00
2022-11-02T15:45:33.895Z,15.00
2022-11-02T15:48:12.607Z,14.90
2022-11-02T15:50:48.884Z,14.80
2022-11-02T15:53:40.644Z,14.80
2022-11-02T15:56:26.641Z,14.70
2022-11-02T15:59:12.917Z,14.70
2022-11-02T16:01:41.424Z,14.60
2022-11-02T16:04:21.082Z,14.60
2022-11-02T16:06:50.425Z,14.60
2022-11-02T16:09:33.302Z,14.50
2022-11-02T16:12:11.482Z,14.30
2022-11-02T16:14:40.764Z,14.20
2022-11-02T16:17:20.645Z,14.10
2022-11-02T16:19:50.442Z,14.10
2022-11-02T16:22:25.933Z,14.10
2022-11-02T16:24:55.295Z,14.00
2022-11-02T16:27:24.165Z,14.00
2022-11-02T16:29:53.070Z,13.90
2022-11-02T16:32:21.634Z,13.80
2022-11-02T16:34:51.415Z,13.80
2022-11-02T16:37:21.337Z,13.70
2022-11-02T16:39:49.613Z,13.70
2022-11-02T16:42:20.186Z,13.70
2022-11-02T16:44:57.773Z,13.70
2022-11-02T16:47:39.763Z,13.70
2022-11-02T16:50:22.418Z,13.70
2022-11-02T16:52:58.646Z,13.60
2022-11-02T16:55:41.961Z,13.60
2022-11-02T16:58:17.759Z,13.60
2022-11-02T17:00:58.071Z,13.50
2022-11-02T17:03:30.625Z,13.50
2022-11-02T17:06:03.344Z,13.50
2022-11-02T17:08:33.728Z,13.50
2022-11-02T17:11:03.903Z,13.40
2022-11-02T17:13:33.619Z,13.40
2022-11-02T17:16:07.208Z,13.50
2022-11-02T17:18:36.566Z,13.40
2022-11-02T17:21:28.639Z,13.40
2022-11-02T17:23:58.227Z,13.40
2022-11-02T17:26:38.048Z,13.40
2022-11-02T17:29:32.357Z,13.30
2022-11-02T17:32:01.712Z,13.40
2022-11-02T17:34:31.603Z,13.40
2022-11-02T17:37:01.599Z,13.40
2022-11-02T17:39:29.840Z,13.30
2022-11-02T17:42:16.514Z,13.30
2022-11-02T17:44:45.469Z,13.30
2022-11-02T17:47:15.041Z,13.40
2022-11-02T17:49:43.292Z,13.40
2022-11-02T17:52:16.406Z,13.40
2022-11-02T17:54:44.598Z,13.40
2022-11-02T17:57:14.287Z,13.30
2022-11-02T17:59:42.567Z,13.30
2022-11-02T18:02:14.605Z,13.20
2022-11-02T18:07:13.605Z,13.20
2022-11-02T18:09:41.896Z,13.20
2022-11-02T18:12:14.536Z,13.20
2022-11-02T18:14:43.115Z,13.20
2022-11-02T18:17:11.529Z,13.10
2022-11-02T18:19:39.587Z,13.20
2022-11-02T18:22:08.124Z,13.20
2022-11-02T18:24:37.660Z,13.10
2022-11-02T18:27:05.841Z,13.00
2022-11-02T18:29:34.627Z,13.00
2022-11-02T18:32:02.775Z,13.10
2022-11-02T18:34:31.132Z,13.10
2022-11-02T18:36:59.315Z,13.10
2022-11-02T18:39:27.516Z,13.20
2022-11-02T18:41:57.239Z,13.10
2022-11-02T18:44:25.291Z,13.10
2022-11-02T18:46:53.524Z,13.00
2022-11-02T18:49:21.864Z,13.10
2022-11-02T18:51:50.090Z,13.00
2022-11-02T18:54:18.326Z,13.00
2022-11-02T18:56:47.051Z,13.00
2022-11-02T18:59:16.518Z,13.00
2022-11-02T19:01:44.781Z,13.00
2022-11-02T19:04:17.202Z,13.10
2022-11-02T19:07:03.549Z,13.20
2022-11-02T19:09:33.523Z,13.10
2022-11-02T19:12:07.798Z,13.00
2022-11-02T19:14:40.293Z,13.00
2022-11-02T19:17:09.942Z,13.00
2022-11-02T19:19:41.027Z,13.10
2022-11-02T19:22:11.327Z,13.00
2022-11-02T19:24:39.846Z,12.90
2022-11-02T19:27:08.131Z,12.90
2022-11-02T19:29:37.713Z,13.00
2022-11-02T19:32:06.196Z,13.00
2022-11-02T19:34:36.737Z,13.00
2022-11-02T19:37:05.275Z,13.10
2022-11-02T19:39:33.673Z,13.10
2022-11-02T19:42:03.280Z,13.00
2022-11-02T19:44:31.760Z,13.00
2022-11-02T19:47:01.328Z,13.10
2022-11-02T19:49:29.458Z,13.10
2022-11-02T19:51:57.612Z,13.10
2022-11-02T19:54:25.812Z,13.00
2022-11-02T19:56:53.992Z,13.00
2022-11-02T19:59:22.599Z,12.90
2022-11-02T20:01:52.056Z,13.00
2022-11-02T20:04:21.856Z,13.00
2022-11-02T20:06:50.371Z,13.10
2022-11-02T20:09:20.692Z,13.20
2022-11-02T20:11:49.600Z,13.10
2022-11-02T20:14:18.885Z,13.10
2022-11-02T20:16:58.393Z,12.90
2022-11-02T20:19:28.547Z,13.00
2022-11-02T20:21:57.314Z,13.00
2022-11-02T20:24:25.552Z,13.00
2022-11-02T20:26:57.271Z,13.10
2022-11-02T20:29:25.647Z,13.00
2022-11-02T20:31:53.970Z,13.10
2022-11-02T20:34:22.123Z,13.10
2022-11-02T20:36:51.851Z,13.10
2022-11-02T20:39:20.077Z,13.10
2022-11-02T20:41:48.240Z,13.10
2022-11-02T20:44:20.841Z,13.10
2022-11-02T20:46:53.052Z,13.10
2022-11-02T20:49:44.285Z,13.20
2022-11-02T20:52:12.339Z,13.30
2022-11-02T20:54:41.681Z,13.30
2022-11-02T20:57:09.862Z,13.10
2022-11-02T20:59:38.035Z,13.10
2022-11-02T21:02:06.454Z,13.20
2022-11-02T21:04:34.579Z,13.10
2022-11-02T21:07:02.871Z,13.20
2022-11-02T21:09:32.421Z,13.10
2022-11-02T21:12:17.873Z,13.20
2022-11-02T21:14:46.117Z,13.20
2022-11-02T21:17:14.218Z,13.10
2022-11-02T21:19:42.458Z,13.20
2022-11-02T21:22:10.855Z,13.30
2022-11-02T21:24:40.382Z,13.30
2022-11-02T21:27:08.481Z,13.40
2022-11-02T21:29:36.660Z,13.30
2022-11-02T21:32:05.029Z,13.30
2022-11-02T21:34:33.144Z,13.30
2022-11-02T21:37:03.115Z,13.50
2022-11-02T21:39:31.191Z,13.50
2022-11-02T21:42:00.973Z,13.50
2022-11-02T21:44:29.276Z,13.50
2022-11-02T21:46:57.810Z,13.40
2022-11-02T21:49:25.882Z,13.40
2022-11-02T21:51:54.209Z,13.40
2022-11-02T21:54:22.357Z,13.40
2022-11-02T21:56:50.524Z,13.50
2022-11-02T21:59:20.296Z,13.50
2022-11-02T22:01:50.198Z,13.50
2022-11-02T22:04:21.715Z,13.50
2022-11-02T22:06:50.884Z,13.40
2022-11-02T22:09:19.710Z,13.50
2022-11-02T22:11:48.355Z,13.40
2022-11-02T22:14:16.535Z,13.60
2022-11-02T22:16:46.110Z,13.50
2022-11-02T22:19:15.603Z,13.50
2022-11-02T22:21:45.110Z,13.50
2022-11-02T22:24:13.533Z,13.40
2022-11-02T22:26:42.253Z,13.30
2022-11-02T22:29:11.044Z,13.30
2022-11-02T22:31:40.938Z,13.30
2022-11-02T22:34:12.076Z,13.40
2022-11-02T22:36:41.778Z,13.40
2022-11-02T22:39:12.036Z,13.40
2022-11-02T22:41:42.881Z,13.30
2022-11-02T22:44:12.452Z,13.30
2022-11-02T22:46:42.352Z,13.40
2022-11-02T22:49:14.060Z,13.40
2022-11-02T22:51:45.167Z,13.30
2022-11-02T22:54:15.688Z,13.30
2022-11-02T22:56:44.752Z,13.30
2022-11-02T22:59:13.508Z,13.30
2022-11-02T23:01:42.302Z,13.20
2022-11-02T23:04:13.512Z,13.20
2022-11-02T23:06:41.624Z,13.30
2022-11-02T23:09:13.063Z,13.30
2022-11-02T23:11:40.365Z,13.30
2022-11-02T23:14:10.625Z,13.30
2022-11-02T23:16:40.533Z,13.30
2022-11-02T23:19:29.588Z,13.30
2022-11-02T23:22:33.082Z,13.20
2022-11-02T23:25:15.366Z,13.30
2022-11-02T23:27:58.775Z,13.40
2022-11-02T23:30:46.276Z,13.30
2022-11-02T23:33:14.764Z,13.20
2022-11-02T23:36:00.601Z,13.30
2022-11-02T23:38:50.484Z,13.30
2022-11-02T23:41:20.237Z,13.30
2022-11-02T23:43:48.896Z,13.20
2022-11-02T23:46:17.639Z,13.20
2022-11-02T23:48:48.437Z,13.20
2022-11-02T23:51:37.127Z,13.30
2022-11-02T23:54:23.919Z,13.30
2022-11-02T23:56:52.275Z,13.30
2022-11-02T23:59:20.477Z,13.30
